createdAt,value
2022-08-12T00:02:45.075Z,101043.25
2022-08-12T00:05:33.454Z,101043.50
2022-08-12T00:08:28.901Z,101043.50
2022-08-12T00:11:21.106Z,101038.41
2022-08-12T00:14:06.414Z,101030.75
2022-08-12T00:16:51.862Z,101031.06
2022-08-12T00:19:37.290Z,101037.53
2022-08-12T00:22:22.606Z,101036.09
2022-08-12T00:25:07.848Z,101037.75
2022-08-12T00:27:53.777Z,101036.06
2022-08-12T00:30:39.173Z,101048.41
2022-08-12T00:33:26.348Z,101048.94
2022-08-12T00:36:35.042Z,101039.38
2022-08-12T00:39:22.426Z,101045.50
2022-08-12T00:42:10.352Z,101053.97
2022-08-12T00:44:39.411Z,101046.09
2022-08-12T00:47:06.328Z,101046.94
2022-08-12T00:49:36.651Z,101043.94
2022-08-12T00:52:11.831Z,101044.06
2022-08-12T00:55:00.812Z,101039.00
2022-08-12T00:57:35.714Z,101039.00
2022-08-12T01:00:10.725Z,101039.84
2022-08-12T01:02:40.417Z,101031.41
2022-08-12T01:05:40.553Z,101040.28
2022-08-12T01:08:26.925Z,101036.63
2022-08-12T01:11:14.336Z,101034.66
2022-08-12T01:13:47.013Z,101032.63
2022-08-12T01:16:19.426Z,101034.66
2022-08-12T01:18:46.123Z,101043.81
2022-08-12T01:21:19.650Z,101041.69
2022-08-12T01:23:52.188Z,101036.59
2022-08-12T01:26:23.435Z,101034.78
2022-08-12T01:28:55.215Z,101035.16
2022-08-12T01:31:25.592Z,101029.97
2022-08-12T01:34:35.323Z,101032.22
2022-08-12T01:37:02.189Z,101034.31
2022-08-12T01:39:31.871Z,101037.28
2022-08-12T01:42:03.329Z,101026.28
2022-08-12T01:44:32.582Z,101034.53
2022-08-12T01:47:30.326Z,101028.19
2022-08-12T01:50:08.711Z,101023.16
2022-08-12T01:52:59.751Z,101027.50
2022-08-12T01:55:33.349Z,101035.41
2022-08-12T01:58:54.776Z,101021.91
2022-08-12T02:01:27.764Z,101026.97
2022-08-12T02:04:32.767Z,101033.06
2022-08-12T02:07:26.888Z,101036.63
2022-08-12T02:10:51.314Z,101030.38
2022-08-12T02:13:48.379Z,101029.56
2022-08-12T02:16:53.947Z,101034.97
2022-08-12T02:19:30.104Z,101035.59
2022-08-12T02:22:17.298Z,101033.53
2022-08-12T02:24:46.119Z,101034.34
2022-08-12T02:27:14.982Z,101033.31
2022-08-12T02:29:41.867Z,101033.06
2022-08-12T02:32:10.018Z,101029.03
2022-08-12T02:34:37.721Z,101031.31
2022-08-12T02:37:04.414Z,101026.78
2022-08-12T02:39:33.804Z,101040.75
2022-08-12T02:42:04.575Z,101036.56
2022-08-12T02:44:37.390Z,101041.78
2022-08-12T02:47:06.327Z,101040.69
2022-08-12T02:49:39.761Z,101040.75
2022-08-12T02:52:07.917Z,101035.47
2022-08-12T02:54:36.797Z,101038.84
2022-08-12T02:57:06.055Z,101037.22
2022-08-12T02:59:35.525Z,101036.50
2022-08-12T03:02:04.291Z,101036.97
2022-08-12T03:04:40.098Z,101029.69
2022-08-12T03:07:20.052Z,101031.38
2022-08-12T03:10:03.624Z,101031.16
2022-08-12T03:12:55.145Z,101036.00
2022-08-12T03:15:24.684Z,101029.72
2022-08-12T03:18:26.454Z,101024.06
2022-08-12T03:20:43.317Z,101031.63
2022-08-12T03:23:11.848Z,101018.44
2022-08-12T03:25:57.090Z,101028.94
2022-08-12T03:28:42.839Z,101029.28
2022-08-12T03:31:10.172Z,101032.16
2022-08-12T03:33:39.925Z,101026.22
2022-08-12T03:36:09.035Z,101026.63
2022-08-12T03:38:40.299Z,101028.38
2022-08-12T03:41:34.915Z,101029.06
2022-08-12T03:44:26.053Z,101032.72
2022-08-12T03:47:20.992Z,101027.63
2022-08-12T03:50:07.307Z,101026.78
2022-08-12T03:52:52.708Z,101031.38
2022-08-12T03:55:38.085Z,101029.47
2022-08-12T03:58:24.470Z,101033.69
2022-08-12T04:00:51.599Z,101036.19
2022-08-12T04:03:38.475Z,101033.06
2022-08-12T04:06:08.180Z,101028.97
2022-08-12T04:08:35.524Z,101030.63
2022-08-12T04:11:22.116Z,101037.03
2022-08-12T04:13:48.922Z,101034.81
2022-08-12T04:16:17.008Z,101043.31
2022-08-12T04:18:44.361Z,101040.84
2022-08-12T04:21:11.477Z,101041.09
2022-08-12T04:23:43.910Z,101041.59
2022-08-12T04:26:14.672Z,101043.22
2022-08-12T04:28:41.267Z,101038.81
2022-08-12T04:31:07.900Z,101030.25
2022-08-12T04:33:36.209Z,101035.63
2022-08-12T04:36:03.055Z,101041.50
2022-08-12T04:38:30.586Z,101035.00
2022-08-12T04:40:58.003Z,101033.38
2022-08-12T04:44:00.451Z,101033.22
2022-08-12T04:46:12.203Z,101033.56
2022-08-12T04:48:39.064Z,101025.69
2022-08-12T04:51:06.727Z,101038.19
2022-08-12T04:53:33.944Z,101040.41
2022-08-12T04:56:01.231Z,101043.13
2022-08-12T04:58:29.582Z,101037.09
2022-08-12T05:00:57.076Z,101037.13
2022-08-12T05:03:26.614Z,101035.97
2022-08-12T05:05:56.552Z,101036.53
2022-08-12T05:08:24.066Z,101033.66
2022-08-12T05:10:50.861Z,101044.06
2022-08-12T05:13:21.103Z,101034.63
2022-08-12T05:16:04.885Z,101029.16
2022-08-12T05:18:35.384Z,101039.31
2022-08-12T05:21:07.752Z,101027.53
2022-08-12T05:23:36.923Z,101037.75
2022-08-12T05:26:04.913Z,101031.94
2022-08-12T05:28:31.719Z,101029.03
2022-08-12T05:31:01.577Z,101030.84
2022-08-12T05:33:37.346Z,101031.88
2022-08-12T05:36:08.839Z,101030.25
2022-08-12T05:38:54.839Z,101037.13
2022-08-12T05:41:25.738Z,101044.81
2022-08-12T05:43:55.416Z,101044.91
2022-08-12T05:46:24.101Z,101045.53
2022-08-12T05:48:54.227Z,101039.72
2022-08-12T05:51:24.782Z,101051.03
2022-08-12T05:53:57.262Z,101049.53
2022-08-12T05:56:34.241Z,101055.44
2022-08-12T05:59:03.217Z,101053.75
2022-08-12T06:02:10.885Z,101050.38
2022-08-12T06:04:17.265Z,101046.91
2022-08-12T06:06:43.855Z,101052.81
2022-08-12T06:09:11.326Z,101052.00
2022-08-12T06:11:41.344Z,101047.53
2022-08-12T06:14:26.693Z,101049.59
2022-08-12T06:16:55.209Z,101059.16
2022-08-12T06:19:21.892Z,101044.03
2022-08-12T06:21:48.766Z,101045.75
2022-08-12T06:24:23.643Z,101041.81
2022-08-12T06:26:51.330Z,101054.72
2022-08-12T06:30:08.283Z,101055.03
2022-08-12T06:32:06.934Z,101051.97
2022-08-12T06:35:23.250Z,101054.53
2022-08-12T06:37:21.182Z,101053.78
2022-08-12T06:39:52.217Z,101055.00
2022-08-12T06:42:37.278Z,101058.41
2022-08-12T06:45:05.529Z,101052.50
2022-08-12T06:47:37.105Z,101047.72
2022-08-12T06:50:04.111Z,101060.69
2022-08-12T06:52:32.196Z,101057.38
2022-08-12T06:54:59.872Z,101058.69
2022-08-12T06:58:06.334Z,101050.88
2022-08-12T07:00:31.249Z,101055.78
2022-08-12T07:03:01.263Z,101047.31
2022-08-12T07:05:48.239Z,101054.31
2022-08-12T07:08:18.064Z,101050.13
2022-08-12T07:10:53.383Z,101058.25
2022-08-12T07:13:20.525Z,101057.41
2022-08-12T07:15:47.143Z,101064.72
2022-08-12T07:18:17.713Z,101063.94
2022-08-12T07:20:52.744Z,101069.56
2022-08-12T07:23:20.170Z,101054.59
2022-08-12T07:25:46.947Z,101054.09
2022-08-12T07:28:18.975Z,101066.84
2022-08-12T07:30:49.080Z,101067.72
2022-08-12T07:33:17.007Z,101062.66
2022-08-12T07:35:45.469Z,101062.69
2022-08-12T07:38:47.784Z,101069.47
2022-08-12T07:41:20.530Z,101064.94
2022-08-12T07:43:53.889Z,101075.31
2022-08-12T07:46:25.787Z,101073.34
2022-08-12T07:48:55.551Z,101075.31
2022-08-12T07:51:25.369Z,101069.69
2022-08-12T07:54:00.509Z,101081.22
2022-08-12T07:56:31.278Z,101081.75
2022-08-12T07:59:03.131Z,101078.88
2022-08-12T08:01:32.775Z,101084.75
2022-08-12T08:04:19.509Z,101078.22
2022-08-12T08:06:47.338Z,101078.72
2022-08-12T08:09:15.641Z,101088.88
2022-08-12T08:12:00.725Z,101070.81
2022-08-12T08:14:29.336Z,101077.25
2022-08-12T08:17:00.803Z,101074.13
2022-08-12T08:19:29.175Z,101068.63
2022-08-12T08:21:57.094Z,101081.31
2022-08-12T08:24:26.882Z,101076.19
2022-08-12T08:26:56.619Z,101073.88
2022-08-12T08:29:24.349Z,101074.53
2022-08-12T08:31:54.618Z,101074.56
2022-08-12T08:34:40.133Z,101076.03
2022-08-12T08:37:10.522Z,101080.38
2022-08-12T08:39:39.040Z,101073.75
2022-08-12T08:42:24.507Z,101072.41
2022-08-12T08:44:57.917Z,101073.97
2022-08-12T08:47:25.787Z,101071.75
2022-08-12T08:49:52.436Z,101074.56
2022-08-12T08:52:35.342Z,101078.56
2022-08-12T08:55:09.522Z,101075.06
2022-08-12T08:57:43.484Z,101083.03
2022-08-12T09:00:20.339Z,101080.69
2022-08-12T09:02:49.313Z,101076.38
2022-08-12T09:05:25.828Z,101082.53
2022-08-12T09:07:58.839Z,101080.28
2022-08-12T09:10:39.419Z,101076.22
2022-08-12T09:16:21.424Z,101082.34
2022-08-12T09:18:52.253Z,101079.28
2022-08-12T09:21:22.926Z,101082.34
2022-08-12T09:26:46.351Z,101079.28
2022-08-12T09:30:11.842Z,101076.31
2022-08-12T09:32:11.621Z,101079.75
2022-08-12T09:34:56.763Z,101076.84
2022-08-12T09:37:26.454Z,101076.81
2022-08-12T09:40:06.574Z,101080.88
2022-08-12T09:43:15.223Z,101076.59
2022-08-12T09:46:19.617Z,101073.47
2022-08-12T09:48:36.662Z,101071.56
2022-08-12T09:51:17.116Z,101065.66
2022-08-12T09:54:09.048Z,101072.72
2022-08-12T09:57:00.304Z,101061.09
2022-08-12T10:00:13.501Z,101061.94
2022-08-12T10:02:44.405Z,101059.47
2022-08-12T10:04:59.423Z,101053.72
2022-08-12T10:07:29.129Z,101056.19
2022-08-12T10:10:08.129Z,101051.84
2022-08-12T10:13:12.306Z,101048.94
2022-08-12T10:16:02.503Z,101050.59
2022-08-12T10:18:32.912Z,101039.44
2022-08-12T10:21:10.403Z,101045.94
2022-08-12T10:23:39.880Z,101048.19
2022-08-12T10:26:36.911Z,101033.06
2022-08-12T10:30:03.514Z,101027.00
2022-08-12T10:32:45.135Z,101030.38
2022-08-12T10:35:09.031Z,101026.13
2022-08-12T10:38:38.104Z,101019.66
2022-08-12T10:40:28.675Z,101025.34
2022-08-12T10:43:16.773Z,101020.59
2022-08-12T10:45:46.063Z,101010.47
2022-08-12T10:48:21.232Z,101016.78
2022-08-12T10:51:02.545Z,101010.53
2022-08-12T10:53:44.949Z,100995.59
2022-08-12T10:56:17.546Z,100990.34
2022-08-12T10:58:47.014Z,100989.28
2022-08-12T11:01:49.911Z,100988.13
2022-08-12T11:04:22.959Z,100984.25
2022-08-12T11:07:05.723Z,100984.44
2022-08-12T11:10:00.936Z,100979.81
2022-08-12T11:12:57.084Z,100979.59
2022-08-12T11:15:21.365Z,100965.09
2022-08-12T11:17:53.546Z,100960.59
2022-08-12T11:20:29.048Z,100958.81
2022-08-12T11:23:25.487Z,100963.63
2022-08-12T11:25:57.987Z,100953.53
2022-08-12T11:28:34.647Z,100961.13
2022-08-12T11:31:03.514Z,100953.13
2022-08-12T11:34:05.996Z,100944.84
2022-08-12T11:36:17.589Z,100945.41
2022-08-12T11:38:50.433Z,100942.16
2022-08-12T11:41:31.163Z,100943.66
2022-08-12T11:44:36.127Z,100944.94
2022-08-12T11:46:50.905Z,100942.53
2022-08-12T11:49:20.480Z,100933.78
2022-08-12T11:51:59.439Z,100944.59
2022-08-12T11:54:26.040Z,100932.66
2022-08-12T11:56:59.646Z,100934.50
2022-08-12T12:02:17.672Z,100928.69
2022-08-12T12:04:46.179Z,100922.19
2022-08-12T12:08:36.293Z,100919.47
2022-08-12T12:10:12.877Z,100922.19
2022-08-12T12:12:41.523Z,100916.63
2022-08-12T12:15:16.164Z,100926.59
2022-08-12T12:17:55.774Z,100926.34
2022-08-12T12:20:26.174Z,100913.69
2022-08-12T12:22:57.312Z,100925.28
2022-08-12T12:25:59.514Z,100924.16
2022-08-12T12:28:37.023Z,100920.53
2022-08-12T12:30:57.769Z,100917.16
2022-08-12T12:33:26.554Z,100912.41
2022-08-12T12:36:20.146Z,100911.53
2022-08-12T12:38:51.017Z,100919.69
2022-08-12T12:41:17.643Z,100902.84
2022-08-12T12:44:04.248Z,100904.72
2022-08-12T12:46:31.207Z,100907.66
2022-08-12T12:48:57.852Z,100904.50
2022-08-12T12:51:48.781Z,100902.06
2022-08-12T12:54:12.496Z,100892.66
2022-08-12T12:56:42.292Z,100895.88
2022-08-12T12:59:54.891Z,100894.22
2022-08-12T13:01:56.162Z,100891.72
2022-08-12T13:04:24.548Z,100885.84
2022-08-12T13:06:52.362Z,100880.63
2022-08-12T13:09:22.250Z,100882.09
2022-08-12T13:11:53.368Z,100883.69
2022-08-12T13:14:29.551Z,100870.16
2022-08-12T13:17:02.580Z,100877.25
2022-08-12T13:19:37.494Z,100882.13
2022-08-12T13:22:18.602Z,100878.34
2022-08-12T13:24:52.089Z,100876.94
2022-08-12T13:27:35.297Z,100870.44
2022-08-12T13:30:06.871Z,100879.25
2022-08-12T13:32:37.536Z,100876.16
2022-08-12T13:35:19.999Z,100864.41
2022-08-12T13:37:55.752Z,100872.41
2022-08-12T13:40:27.783Z,100866.91
2022-08-12T13:42:58.951Z,100867.47
2022-08-12T13:45:28.243Z,100875.91
2022-08-12T13:48:01.792Z,100878.91
2022-08-12T13:50:33.038Z,100877.72
2022-08-12T13:53:01.328Z,100864.22
2022-08-12T13:55:49.846Z,100854.34
2022-08-12T13:58:26.866Z,100859.03
2022-08-12T14:00:54.559Z,100859.19
2022-08-12T14:03:28.010Z,100852.03
2022-08-12T14:05:57.904Z,100859.25
2022-08-12T14:08:28.395Z,100852.22
2022-08-12T14:11:02.266Z,100857.91
2022-08-12T14:14:05.211Z,100852.22
2022-08-12T14:16:32.381Z,100845.00
2022-08-12T14:19:22.805Z,100848.19
2022-08-12T14:22:01.553Z,100845.38
2022-08-12T14:24:40.366Z,100849.75
2022-08-12T14:27:08.777Z,100844.72
2022-08-12T14:29:38.217Z,100845.88
2022-08-12T14:32:24.172Z,100844.19
2022-08-12T14:34:51.505Z,100842.38
2022-08-12T14:37:55.318Z,100837.06
2022-08-12T14:40:06.896Z,100846.38
2022-08-12T14:42:33.491Z,100836.84
2022-08-12T14:45:02.183Z,100829.38
2022-08-12T14:47:35.347Z,100833.19
2022-08-12T14:50:57.448Z,100837.19
2022-08-12T14:58:31.864Z,100817.19
2022-08-12T15:01:19.736Z,100831.03
2022-08-12T15:03:56.803Z,100820.06
2022-08-12T15:06:44.429Z,100822.88
2022-08-12T15:09:13.999Z,100833.78
2022-08-12T15:11:48.950Z,100825.75
2022-08-12T15:14:26.621Z,100823.59
2022-08-12T15:16:54.455Z,100829.28
2022-08-12T15:20:31.533Z,100819.56
2022-08-12T15:22:36.795Z,100811.50
2022-08-12T15:24:54.354Z,100811.50
2022-08-12T15:27:22.461Z,100805.81
2022-08-12T15:29:58.645Z,100821.41
2022-08-12T15:32:31.776Z,100818.06
2022-08-12T15:35:02.271Z,100818.41
2022-08-12T15:37:59.021Z,100820.59
2022-08-12T15:40:21.752Z,100814.91
2022-08-12T15:42:59.663Z,100813.56
2022-08-12T15:45:27.877Z,100807.69
2022-08-12T15:48:16.131Z,100805.72
2022-08-12T15:50:45.640Z,100794.53
2022-08-12T15:53:15.630Z,100798.16
2022-08-12T15:55:45.807Z,100807.22
2022-08-12T15:58:13.500Z,100806.88
2022-08-12T16:00:43.736Z,100801.34
2022-08-12T16:03:13.718Z,100802.53
2022-08-12T16:06:11.750Z,100796.69
2022-08-12T16:08:36.401Z,100804.84
2022-08-12T16:11:07.295Z,100790.56
2022-08-12T16:13:44.481Z,100794.09
2022-08-12T16:16:23.330Z,100792.75
2022-08-12T16:18:52.749Z,100790.91
2022-08-12T16:21:52.496Z,100797.19
2022-08-12T16:24:11.519Z,100794.34
2022-08-12T16:26:40.511Z,100793.69
2022-08-12T16:29:15.519Z,100789.84
2022-08-12T16:31:44.758Z,100782.00
2022-08-12T16:34:42.007Z,100777.81
2022-08-12T16:37:08.593Z,100781.34
2022-08-12T16:39:59.859Z,100784.16
2022-08-12T16:42:28.408Z,100773.31
2022-08-12T16:45:00.401Z,100766.44
2022-08-12T16:47:31.255Z,100762.44
2022-08-12T16:50:19.433Z,100771.47
2022-08-12T16:52:50.279Z,100764.25
2022-08-12T16:55:18.663Z,100762.28
2022-08-12T16:57:48.456Z,100754.09
2022-08-12T17:00:17.069Z,100753.94
2022-08-12T17:02:57.222Z,100759.44
2022-08-12T17:05:31.295Z,100756.63
2022-08-12T17:08:00.268Z,100747.06
2022-08-12T17:10:35.571Z,100754.06
2022-08-12T17:13:10.111Z,100750.06
2022-08-12T17:15:57.613Z,100755.09
2022-08-12T17:18:42.757Z,100749.25
2022-08-12T17:21:17.285Z,100746.91
2022-08-12T17:23:53.042Z,100754.47
2022-08-12T17:26:28.090Z,100747.78
2022-08-12T17:28:57.808Z,100743.91
2022-08-12T17:31:59.252Z,100744.41
2022-08-12T17:34:33.278Z,100742.94
2022-08-12T17:37:02.805Z,100731.84
2022-08-12T17:40:15.728Z,100738.22
2022-08-12T17:42:32.614Z,100748.41
2022-08-12T17:45:17.942Z,100737.72
2022-08-12T17:48:00.093Z,100751.09
2022-08-12T17:50:36.862Z,100750.63
2022-08-12T17:53:08.044Z,100748.25
2022-08-12T17:55:40.234Z,100740.72
2022-08-12T17:58:13.652Z,100749.78
2022-08-12T18:00:44.191Z,100748.63
2022-08-12T18:04:05.270Z,100745.06
2022-08-12T18:06:08.094Z,100748.91
2022-08-12T18:08:53.583Z,100754.44
2022-08-12T18:12:03.183Z,100764.97
2022-08-12T18:14:27.844Z,100757.75
2022-08-12T18:16:57.466Z,100764.34
2022-08-12T18:19:28.682Z,100758.97
2022-08-12T18:22:17.367Z,100761.75
2022-08-12T18:24:44.605Z,100764.06
2022-08-12T18:27:30.036Z,100757.97
2022-08-12T18:30:04.345Z,100764.41
2022-08-12T18:32:44.692Z,100763.53
2022-08-12T18:35:20.736Z,100758.00
2022-08-12T18:38:02.595Z,100763.50
2022-08-12T18:40:48.787Z,100762.78
2022-08-12T18:43:18.770Z,100761.53
2022-08-12T18:45:56.971Z,100768.03
2022-08-12T18:48:24.786Z,100777.63
2022-08-12T18:51:21.848Z,100775.00
2022-08-12T18:54:07.374Z,100766.28
2022-08-12T18:56:38.625Z,100765.16
2022-08-12T18:59:06.387Z,100765.38
2022-08-12T19:02:21.791Z,100755.56
2022-08-12T19:04:25.408Z,100768.69
2022-08-12T19:06:57.333Z,100768.25
2022-08-12T19:09:57.465Z,100766.50
2022-08-12T19:12:42.859Z,100766.94
2022-08-12T19:15:25.904Z,100781.88
2022-08-12T19:18:00.532Z,100776.63
2022-08-12T19:20:30.052Z,100777.63
2022-08-12T19:22:59.750Z,100772.00
2022-08-12T19:25:59.414Z,100783.91
2022-08-12T19:28:30.110Z,100779.84
2022-08-12T19:31:45.033Z,100774.38
2022-08-12T19:35:32.814Z,100776.75
2022-08-12T19:38:02.674Z,100780.47
2022-08-12T19:40:32.916Z,100778.66
2022-08-12T19:43:13.368Z,100781.22
2022-08-12T19:45:51.280Z,100779.16
2022-08-12T19:48:21.414Z,100782.25
2022-08-12T19:50:52.761Z,100786.75
2022-08-12T19:53:22.782Z,100790.56
2022-08-12T19:55:52.673Z,100785.66
2022-08-12T19:58:21.155Z,100783.03
2022-08-12T20:00:53.163Z,100787.19
2022-08-12T20:03:39.415Z,100786.69
2022-08-12T20:06:15.699Z,100792.69
2022-08-12T20:08:55.516Z,100786.25
2022-08-12T20:12:13.335Z,100797.03
2022-08-12T20:14:19.057Z,100797.88
2022-08-12T20:16:52.057Z,100796.25
2022-08-12T20:19:21.429Z,100808.72
2022-08-12T20:21:50.324Z,100804.50
2022-08-12T20:24:16.994Z,100800.63
2022-08-12T20:26:46.808Z,100816.19
2022-08-12T20:29:16.670Z,100810.63
2022-08-12T20:31:44.309Z,100806.22
2022-08-12T20:34:12.043Z,100806.19
2022-08-12T20:36:44.308Z,100800.09
2022-08-12T20:39:34.181Z,100811.25
2022-08-12T20:42:04.208Z,100804.44
2022-08-12T20:44:39.634Z,100814.09
2022-08-12T20:47:18.713Z,100812.06
2022-08-12T20:49:55.272Z,100813.13
2022-08-12T20:52:25.278Z,100810.22
2022-08-12T20:54:52.245Z,100810.88
2022-08-12T20:57:22.432Z,100808.56
2022-08-12T20:59:52.397Z,100809.75
2022-08-12T21:02:24.421Z,100810.44
2022-08-12T21:05:10.743Z,100800.56
2022-08-12T21:07:47.632Z,100805.66
2022-08-12T21:10:20.754Z,100802.19
2022-08-12T21:12:48.603Z,100806.16
2022-08-12T21:15:23.327Z,100809.25
2022-08-12T21:18:11.221Z,100815.59
2022-08-12T21:20:52.459Z,100815.81
2022-08-12T21:23:23.434Z,100817.53
2022-08-12T21:25:56.539Z,100812.31
2022-08-12T21:28:27.792Z,100820.22
2022-08-12T21:32:34.351Z,100816.00
2022-08-12T21:34:06.790Z,100825.00
2022-08-12T21:36:39.836Z,100820.47
2022-08-12T21:39:20.522Z,100824.13
2022-08-12T21:41:51.405Z,100812.44
2022-08-12T21:44:24.271Z,100829.56
2022-08-12T21:47:20.097Z,100816.59
2022-08-12T21:50:04.332Z,100822.53
2022-08-12T21:52:40.806Z,100822.84
2022-08-12T21:55:18.348Z,100821.72
2022-08-12T21:57:53.307Z,100818.38
2022-08-12T22:00:32.105Z,100813.25
2022-08-12T22:04:02.879Z,100825.59
2022-08-12T22:06:19.913Z,100823.91
2022-08-12T22:08:55.748Z,100819.72
2022-08-12T22:11:24.165Z,100820.28
2022-08-12T22:14:10.207Z,100828.63
2022-08-12T22:16:46.897Z,100830.56
2022-08-12T22:19:19.255Z,100829.16
2022-08-12T22:21:48.346Z,100829.72
2022-08-12T22:24:27.196Z,100825.56
2022-08-12T22:27:14.485Z,100832.13
2022-08-12T22:30:07.296Z,100828.13
2022-08-12T22:32:38.686Z,100834.59
2022-08-12T22:35:29.253Z,100828.50
2022-08-12T22:37:56.359Z,100841.84
2022-08-12T22:40:23.907Z,100832.69
2022-08-12T22:43:15.529Z,100835.25
2022-08-12T22:46:01.706Z,100833.03
2022-08-12T22:48:28.412Z,100831.13
2022-08-12T22:50:57.608Z,100831.06
2022-08-12T22:53:36.430Z,100833.19
2022-08-12T22:56:08.146Z,100825.16
2022-08-12T22:58:40.489Z,100831.28
2022-08-12T23:01:11.044Z,100830.41
2022-08-12T23:03:49.261Z,100826.00
2022-08-12T23:06:23.624Z,100831.97
2022-08-12T23:08:51.998Z,100820.75
2022-08-12T23:11:23.286Z,100827.19
2022-08-12T23:13:55.056Z,100818.50
2022-08-12T23:16:31.655Z,100826.34
2022-08-12T23:19:09.689Z,100823.72
2022-08-12T23:22:06.761Z,100823.53
2022-08-12T23:24:36.586Z,100827.56
2022-08-12T23:27:22.581Z,100816.81
2022-08-12T23:29:59.527Z,100819.63
2022-08-12T23:32:37.120Z,100817.41
2022-08-12T23:35:06.717Z,100822.75
2022-08-12T23:37:46.630Z,100821.03
2022-08-12T23:40:22.157Z,100819.63
2022-08-12T23:42:49.401Z,100817.38
2022-08-12T23:45:20.304Z,100826.41
2022-08-12T23:47:59.746Z,100823.59
2022-08-12T23:50:33.830Z,100820.09
2022-08-12T23:53:06.625Z,100826.91
2022-08-12T23:55:45.458Z,100819.66
2022-08-12T23:58:21.222Z,100824.72
